createdAt,value
2019-04-30T00:01:21.317Z,41.90
2019-04-30T00:03:59.230Z,40.00
2019-04-30T00:06:47.668Z,42.10
2019-04-30T00:09:19.260Z,41.50
2019-04-30T00:11:50.548Z,31.90
2019-04-30T00:14:21.437Z,31.47
2019-04-30T00:16:52.354Z,30.27
2019-04-30T00:19:21.839Z,35.77
2019-04-30T00:21:57.086Z,34.47
2019-04-30T00:24:22.555Z,36.60
2019-04-30T00:26:52.647Z,38.17
2019-04-30T00:29:26.655Z,27.20
2019-04-30T00:31:59.306Z,39.80
2019-04-30T00:34:26.100Z,29.90
2019-04-30T00:36:57.123Z,30.17
2019-04-30T00:39:27.290Z,35.17
2019-04-30T00:41:57.607Z,38.30
2019-04-30T00:44:28.943Z,42.13
2019-04-30T00:47:00.536Z,32.83
2019-04-30T00:49:29.704Z,41.10
2019-04-30T00:51:59.307Z,31.03
2019-04-30T00:54:30.833Z,28.73
2019-04-30T00:57:04.563Z,35.93
2019-04-30T00:59:32.546Z,30.20
2019-04-30T01:02:11.022Z,30.30
2019-04-30T01:04:45.046Z,31.93
2019-04-30T01:07:15.586Z,37.77
2019-04-30T01:09:49.408Z,36.73
2019-04-30T01:12:27.587Z,42.30
2019-04-30T01:14:49.755Z,33.50
2019-04-30T01:17:20.865Z,39.53
2019-04-30T01:19:54.291Z,34.90
2019-04-30T01:22:28.175Z,40.50
2019-04-30T01:24:56.380Z,37.13
2019-04-30T01:27:29.045Z,36.50
2019-04-30T01:29:58.865Z,42.00
2019-04-30T01:32:28.539Z,42.00
2019-04-30T01:34:58.977Z,38.90
2019-04-30T01:37:32.873Z,29.63
2019-04-30T01:40:03.165Z,28.70
2019-04-30T01:42:35.008Z,38.93
2019-04-30T01:45:06.294Z,35.60
2019-04-30T01:47:37.231Z,39.27
2019-04-30T01:50:06.964Z,34.70
2019-04-30T01:52:52.779Z,31.17
2019-04-30T01:55:25.462Z,34.50
2019-04-30T01:58:02.283Z,43.23
2019-04-30T02:00:39.456Z,38.77
2019-04-30T02:03:11.188Z,41.73
2019-04-30T02:05:40.090Z,39.60
2019-04-30T02:08:09.608Z,34.00
2019-04-30T02:10:40.467Z,33.80
2019-04-30T02:13:10.045Z,39.80
2019-04-30T02:15:39.537Z,39.77
2019-04-30T02:18:10.261Z,41.13
2019-04-30T02:20:39.743Z,40.87
2019-04-30T02:23:09.707Z,36.13
2019-04-30T02:25:40.943Z,40.20
2019-04-30T02:28:10.463Z,40.57
2019-04-30T02:30:41.162Z,40.80
2019-04-30T02:33:10.784Z,41.70
2019-04-30T02:35:41.924Z,32.93
2019-04-30T02:38:16.000Z,41.60
2019-04-30T02:40:45.538Z,34.97
2019-04-30T02:43:15.058Z,39.57
2019-04-30T02:45:44.642Z,33.03
2019-04-30T02:48:15.633Z,33.87
2019-04-30T02:50:45.421Z,35.83
2019-04-30T02:53:50.734Z,37.53
2019-04-30T02:56:21.780Z,39.47
2019-04-30T02:58:51.291Z,37.23
2019-04-30T03:01:22.451Z,39.20
2019-04-30T03:03:51.905Z,36.50
2019-04-30T03:06:23.797Z,37.80
2019-04-30T03:08:54.269Z,37.10
2019-04-30T03:11:25.262Z,42.13
2019-04-30T03:13:54.777Z,41.23
2019-04-30T03:16:34.787Z,41.20
2019-04-30T03:19:20.855Z,40.83
2019-04-30T03:22:00.948Z,42.20
2019-04-30T03:24:30.484Z,35.77
2019-04-30T03:27:01.348Z,39.60
2019-04-30T03:29:30.864Z,40.93
2019-04-30T03:32:03.250Z,34.83
2019-04-30T03:34:33.341Z,42.00
2019-04-30T03:37:03.138Z,37.93
2019-04-30T03:39:33.970Z,40.87
2019-04-30T03:42:03.876Z,40.27
2019-04-30T03:44:33.379Z,36.00
2019-04-30T03:47:04.151Z,34.90
2019-04-30T03:49:33.679Z,35.00
2019-04-30T03:52:03.277Z,41.80
2019-04-30T03:54:32.712Z,30.43
2019-04-30T03:57:03.396Z,40.00
2019-04-30T03:59:32.931Z,33.17
2019-04-30T04:02:12.745Z,40.50
2019-04-30T04:04:52.066Z,38.00
2019-04-30T04:07:21.000Z,38.00
2019-04-30T04:09:52.146Z,35.53
2019-04-30T04:12:24.099Z,38.60
2019-04-30T04:14:53.567Z,38.30
2019-04-30T04:17:23.418Z,41.80
2019-04-30T04:19:52.932Z,39.83
2019-04-30T04:22:23.808Z,37.73
2019-04-30T04:24:53.259Z,36.57
2019-04-30T04:27:24.232Z,33.30
2019-04-30T04:29:53.707Z,36.63
2019-04-30T04:32:24.245Z,39.80
2019-04-30T04:34:54.383Z,42.30
2019-04-30T04:37:25.097Z,35.90
2019-04-30T04:39:54.578Z,38.10
2019-04-30T04:42:24.406Z,36.50
2019-04-30T04:44:54.724Z,37.47
2019-04-30T04:47:25.414Z,34.70
2019-04-30T04:49:54.905Z,35.30
2019-04-30T04:52:24.322Z,35.30
2019-04-30T04:54:53.745Z,33.37
2019-04-30T04:57:24.465Z,35.70
2019-04-30T04:59:53.879Z,33.03
2019-04-30T05:02:32.681Z,32.27
2019-04-30T05:05:02.351Z,35.17
2019-04-30T05:07:33.178Z,31.20
2019-04-30T05:10:02.744Z,29.83
2019-04-30T05:12:33.796Z,28.20
2019-04-30T05:15:03.503Z,33.40
2019-04-30T05:17:34.331Z,30.70
2019-04-30T05:20:09.785Z,34.30
2019-04-30T05:22:39.056Z,32.50
2019-04-30T05:25:08.992Z,31.00
2019-04-30T05:27:40.166Z,30.27
2019-04-30T05:30:12.093Z,29.50
2019-04-30T05:32:42.181Z,29.00
2019-04-30T05:35:11.816Z,30.87
2019-04-30T05:37:42.630Z,28.27
2019-04-30T05:40:12.155Z,26.23
2019-04-30T05:42:42.969Z,24.63
2019-04-30T05:45:12.394Z,23.97
2019-04-30T05:47:43.320Z,30.13
2019-04-30T05:50:12.830Z,30.00
2019-04-30T05:52:43.645Z,26.33
2019-04-30T05:55:13.331Z,23.70
2019-04-30T05:57:53.955Z,24.90
2019-04-30T06:00:15.248Z,24.43
2019-04-30T06:02:46.072Z,26.93
2019-04-30T06:05:15.486Z,27.10
2019-04-30T06:07:46.466Z,24.17
2019-04-30T06:10:23.466Z,26.73
2019-04-30T06:13:03.567Z,26.50
2019-04-30T06:15:36.022Z,23.50
2019-04-30T06:18:12.934Z,25.10
2019-04-30T06:20:38.534Z,25.00
2019-04-30T06:23:09.469Z,21.50
2019-04-30T06:25:55.760Z,21.47
2019-04-30T06:28:11.365Z,21.03
2019-04-30T06:30:42.139Z,19.97
2019-04-30T06:33:11.933Z,19.40
2019-04-30T06:35:42.912Z,20.00
2019-04-30T06:38:12.361Z,19.80
2019-04-30T06:40:43.177Z,21.53
2019-04-30T06:43:13.056Z,20.10
2019-04-30T06:45:44.578Z,22.60
2019-04-30T06:48:17.066Z,20.17
2019-04-30T06:50:49.255Z,19.40
2019-04-30T06:53:19.307Z,20.50
2019-04-30T06:55:49.247Z,20.40
2019-04-30T06:58:20.566Z,19.77
2019-04-30T07:00:51.562Z,21.13
2019-04-30T07:03:21.008Z,20.83
2019-04-30T07:05:51.790Z,21.27
2019-04-30T07:08:22.871Z,22.07
2019-04-30T07:11:11.447Z,20.60
2019-04-30T07:13:41.013Z,19.20
2019-04-30T07:16:11.795Z,18.57
2019-04-30T07:18:41.255Z,19.93
2019-04-30T07:21:10.737Z,18.77
2019-04-30T07:23:40.177Z,16.50
2019-04-30T07:26:13.875Z,21.37
2019-04-30T07:28:47.874Z,16.77
2019-04-30T07:31:14.939Z,18.80
2019-04-30T07:33:44.504Z,19.40
2019-04-30T07:36:15.298Z,19.10
2019-04-30T07:38:51.704Z,18.57
2019-04-30T07:41:18.991Z,18.03
2019-04-30T07:43:49.431Z,16.00
2019-04-30T07:46:20.679Z,16.83
2019-04-30T07:48:50.388Z,16.63
2019-04-30T07:51:22.063Z,16.60
2019-04-30T07:53:52.002Z,17.10
2019-04-30T07:56:28.009Z,18.40
2019-04-30T07:58:53.944Z,16.67
2019-04-30T08:01:24.763Z,17.77
2019-04-30T08:03:55.874Z,18.17
2019-04-30T08:06:27.035Z,18.83
2019-04-30T08:08:58.343Z,18.80
2019-04-30T08:11:29.345Z,17.80
2019-04-30T08:13:59.482Z,17.30
2019-04-30T08:16:30.626Z,17.97
2019-04-30T08:19:00.117Z,18.23
2019-04-30T08:21:30.943Z,17.00
2019-04-30T08:24:01.134Z,17.30
2019-04-30T08:26:32.407Z,15.63
2019-04-30T08:29:01.883Z,16.37
2019-04-30T08:31:32.699Z,15.83
2019-04-30T08:34:02.183Z,17.17
2019-04-30T08:36:33.139Z,17.80
2019-04-30T08:39:02.613Z,15.93
2019-04-30T08:41:33.594Z,17.53
2019-04-30T08:44:03.087Z,16.67
2019-04-30T08:46:33.899Z,16.97
2019-04-30T08:49:03.466Z,14.80
2019-04-30T08:51:34.312Z,16.80
2019-04-30T08:54:03.904Z,16.40
2019-04-30T08:56:34.808Z,15.93
2019-04-30T08:59:04.356Z,14.70
2019-04-30T09:01:35.103Z,15.00
2019-04-30T09:04:07.420Z,14.20
2019-04-30T09:06:38.961Z,12.93
2019-04-30T09:09:11.033Z,15.67
2019-04-30T09:11:51.719Z,15.40
2019-04-30T09:14:11.813Z,15.00
2019-04-30T09:16:42.702Z,14.83
2019-04-30T09:19:12.219Z,16.30
2019-04-30T09:21:41.734Z,15.30
2019-04-30T09:24:11.220Z,15.50
2019-04-30T09:26:40.734Z,14.97
2019-04-30T09:29:10.146Z,14.83
2019-04-30T09:31:41.021Z,15.57
2019-04-30T09:34:17.102Z,13.23
2019-04-30T09:36:42.911Z,13.90
2019-04-30T09:39:12.399Z,14.27
2019-04-30T09:41:43.510Z,14.00
2019-04-30T09:44:12.999Z,14.03
2019-04-30T09:46:43.917Z,13.77
2019-04-30T09:49:13.390Z,14.47
2019-04-30T09:51:43.032Z,13.00
2019-04-30T09:54:13.381Z,14.20
2019-04-30T09:56:43.141Z,13.10
2019-04-30T09:59:12.552Z,13.70
2019-04-30T10:01:42.064Z,13.23
2019-04-30T10:04:12.011Z,13.00
2019-04-30T10:06:42.989Z,14.30
2019-04-30T10:09:14.109Z,14.00
2019-04-30T10:12:01.279Z,11.40
2019-04-30T10:14:30.759Z,13.30
2019-04-30T10:17:17.919Z,11.13
2019-04-30T10:19:49.124Z,12.17
2019-04-30T10:22:18.541Z,12.60
2019-04-30T10:24:49.462Z,12.33
2019-04-30T10:27:20.347Z,13.53
2019-04-30T10:29:49.824Z,12.43
2019-04-30T10:32:20.534Z,14.90
2019-04-30T10:34:50.026Z,13.50
2019-04-30T10:37:21.006Z,14.47
2019-04-30T10:39:50.592Z,14.20
2019-04-30T10:42:21.414Z,13.13
2019-04-30T10:44:50.894Z,12.17
2019-04-30T10:47:21.708Z,14.67
2019-04-30T10:49:51.197Z,12.83
2019-04-30T10:52:20.706Z,13.17
2019-04-30T10:54:50.191Z,11.80
2019-04-30T10:57:21.015Z,13.20
2019-04-30T10:59:50.496Z,14.13
2019-04-30T11:02:20.018Z,13.97
2019-04-30T11:04:49.527Z,13.23
2019-04-30T11:07:20.328Z,12.90
2019-04-30T11:09:50.114Z,12.00
2019-04-30T11:12:21.036Z,13.53
2019-04-30T11:14:50.520Z,12.30
2019-04-30T11:17:21.483Z,12.83
2019-04-30T11:19:51.061Z,13.30
2019-04-30T11:22:20.666Z,13.40
2019-04-30T11:24:58.865Z,12.37
2019-04-30T11:27:23.117Z,11.33
2019-04-30T11:29:52.975Z,11.60
2019-04-30T11:32:24.135Z,11.17
2019-04-30T11:34:53.755Z,11.60
2019-04-30T11:37:23.202Z,12.30
2019-04-30T11:39:52.722Z,11.97
2019-04-30T11:42:23.573Z,10.40
2019-04-30T11:44:53.092Z,13.43
2019-04-30T11:47:25.872Z,12.93
2019-04-30T11:49:55.379Z,12.37
2019-04-30T11:52:26.163Z,11.50
2019-04-30T11:54:55.842Z,11.87
2019-04-30T11:57:26.730Z,11.60
2019-04-30T11:59:56.243Z,10.70
2019-04-30T12:02:29.361Z,10.97
2019-04-30T12:04:59.008Z,12.00
2019-04-30T12:07:30.135Z,11.67
2019-04-30T12:10:01.297Z,12.60
2019-04-30T12:12:32.469Z,11.83
2019-04-30T12:15:02.844Z,11.20
2019-04-30T12:17:33.995Z,11.07
2019-04-30T12:20:05.179Z,11.23
2019-04-30T12:22:35.959Z,11.73
2019-04-30T12:25:05.614Z,10.10
2019-04-30T12:27:38.554Z,11.60
2019-04-30T12:30:07.928Z,11.13
2019-04-30T12:32:39.282Z,10.53
2019-04-30T12:35:08.992Z,10.77
2019-04-30T12:37:39.774Z,10.83
2019-04-30T12:40:10.820Z,11.33
2019-04-30T12:42:41.796Z,9.70
2019-04-30T12:45:11.371Z,9.40
2019-04-30T12:47:43.786Z,10.00
2019-04-30T12:50:15.011Z,9.97
2019-04-30T12:52:49.407Z,10.60
2019-04-30T12:55:31.776Z,9.53
2019-04-30T12:58:02.919Z,9.80
2019-04-30T13:00:32.703Z,10.20
2019-04-30T13:03:02.188Z,9.43
2019-04-30T13:05:33.007Z,9.60
2019-04-30T13:08:03.103Z,10.47
2019-04-30T13:10:33.465Z,10.13
2019-04-30T13:13:03.561Z,9.40
2019-04-30T13:15:34.596Z,9.10
2019-04-30T13:18:04.084Z,9.67
2019-04-30T13:20:33.888Z,9.50
2019-04-30T13:23:04.276Z,9.60
2019-04-30T13:25:35.493Z,10.60
2019-04-30T13:28:09.598Z,10.10
2019-04-30T13:30:41.486Z,9.97
2019-04-30T13:33:15.235Z,9.67
2019-04-30T13:35:46.051Z,8.43
2019-04-30T13:38:19.818Z,9.50
2019-04-30T13:40:50.896Z,9.33
2019-04-30T13:43:21.935Z,8.87
2019-04-30T13:45:52.749Z,8.33
2019-04-30T13:48:22.228Z,9.40
2019-04-30T13:50:51.742Z,7.90
2019-04-30T13:53:21.155Z,9.40
2019-04-30T13:55:50.637Z,10.10
2019-04-30T13:58:20.159Z,9.20
2019-04-30T14:00:50.923Z,10.67
2019-04-30T14:03:30.844Z,9.67
2019-04-30T14:06:00.402Z,9.60
2019-04-30T14:08:34.479Z,9.40
2019-04-30T14:11:05.259Z,9.83
2019-04-30T14:13:35.171Z,10.00
2019-04-30T14:16:04.728Z,8.63
2019-04-30T14:18:34.313Z,9.87
2019-04-30T14:21:05.290Z,8.70
2019-04-30T14:23:34.808Z,9.90
2019-04-30T14:26:04.319Z,8.10
2019-04-30T14:28:34.163Z,8.60
2019-04-30T14:31:03.902Z,7.90
2019-04-30T14:33:33.614Z,7.80
2019-04-30T14:36:03.112Z,7.47
2019-04-30T14:38:32.712Z,6.90
2019-04-30T14:41:04.369Z,7.23
2019-04-30T14:43:35.972Z,7.70
2019-04-30T14:46:24.652Z,7.40
2019-04-30T14:49:00.616Z,6.70
2019-04-30T14:51:31.487Z,6.80
2019-04-30T14:54:19.972Z,6.80
2019-04-30T14:56:55.123Z,7.27
2019-04-30T14:59:41.388Z,7.27
2019-04-30T15:02:13.703Z,6.60
2019-04-30T15:04:43.449Z,6.00
2019-04-30T15:07:14.306Z,6.23
2019-04-30T15:09:43.815Z,5.77
2019-04-30T15:12:14.517Z,12.87
2019-04-30T15:14:44.022Z,18.97
2019-04-30T15:17:13.445Z,12.03
2019-04-30T15:19:42.966Z,6.13
2019-04-30T15:22:13.638Z,5.60
2019-04-30T15:24:43.143Z,6.07
2019-04-30T15:27:12.614Z,7.37
2019-04-30T15:29:42.118Z,5.97
2019-04-30T15:32:12.963Z,4.90
2019-04-30T15:34:42.532Z,5.73
2019-04-30T15:37:21.572Z,5.00
2019-04-30T15:39:44.661Z,4.90
2019-04-30T15:42:15.398Z,4.20
2019-04-30T15:44:45.803Z,3.70
2019-04-30T15:47:15.801Z,3.70
2019-04-30T15:49:45.250Z,3.33
2019-04-30T15:52:15.922Z,3.50
2019-04-30T15:54:45.432Z,3.53
2019-04-30T15:57:14.879Z,4.20
2019-04-30T15:59:44.358Z,4.20
2019-04-30T16:02:30.454Z,4.00
2019-04-30T16:05:19.698Z,3.93
2019-04-30T16:07:52.113Z,4.10
2019-04-30T16:10:26.231Z,4.53
2019-04-30T16:13:00.158Z,3.70
2019-04-30T16:15:31.000Z,3.30
2019-04-30T16:18:02.112Z,3.50
2019-04-30T16:20:31.714Z,3.83
2019-04-30T16:23:01.115Z,5.00
2019-04-30T16:25:30.724Z,3.80
2019-04-30T16:28:00.193Z,4.37
2019-04-30T16:30:29.626Z,5.03
2019-04-30T16:33:00.306Z,4.67
2019-04-30T16:35:31.417Z,3.77
2019-04-30T16:38:00.894Z,4.20
2019-04-30T16:40:31.904Z,4.20
2019-04-30T16:43:01.386Z,4.00
2019-04-30T16:45:32.273Z,3.58
2019-04-30T16:48:01.747Z,3.30
2019-04-30T16:50:31.290Z,3.63
2019-04-30T16:53:00.771Z,3.67
2019-04-30T16:55:30.379Z,3.60
2019-04-30T16:58:00.033Z,3.40
2019-04-30T17:00:30.873Z,3.07
2019-04-30T17:03:06.207Z,2.80
2019-04-30T17:05:49.419Z,2.60
2019-04-30T17:08:29.251Z,3.20
2019-04-30T17:11:09.308Z,2.60
2019-04-30T17:13:40.443Z,3.37
2019-04-30T17:16:14.414Z,3.50
2019-04-30T17:18:43.880Z,3.40
2019-04-30T17:21:14.591Z,3.77
2019-04-30T17:23:44.067Z,3.57
2019-04-30T17:26:14.776Z,3.53
2019-04-30T17:28:44.181Z,3.40
2019-04-30T17:31:14.957Z,3.93
2019-04-30T17:33:44.444Z,3.30
2019-04-30T17:36:15.271Z,4.20
2019-04-30T17:38:44.739Z,3.63
2019-04-30T17:41:15.532Z,3.73
2019-04-30T17:43:45.041Z,3.00
2019-04-30T17:46:15.714Z,3.47
2019-04-30T17:48:45.157Z,4.20
2019-04-30T17:51:14.634Z,4.13
2019-04-30T17:54:01.576Z,3.97
2019-04-30T17:56:32.455Z,3.77
2019-04-30T17:59:01.866Z,4.40
2019-04-30T18:01:31.607Z,3.93
2019-04-30T18:04:02.278Z,5.37
2019-04-30T18:06:31.808Z,5.40
2019-04-30T18:09:01.249Z,6.20
2019-04-30T18:11:32.192Z,5.30
2019-04-30T18:14:01.701Z,4.10
2019-04-30T18:16:32.378Z,4.73
2019-04-30T18:19:06.380Z,4.03
2019-04-30T18:21:41.721Z,4.00
2019-04-30T18:24:30.990Z,4.03
2019-04-30T18:27:20.948Z,3.50
2019-04-30T18:29:49.634Z,3.00
2019-04-30T18:32:20.719Z,3.07
2019-04-30T18:34:50.184Z,2.63
2019-04-30T18:37:20.984Z,2.93
2019-04-30T18:39:50.526Z,2.30
2019-04-30T18:42:21.227Z,2.80
2019-04-30T18:44:50.698Z,2.80
2019-04-30T18:47:21.578Z,2.20
2019-04-30T18:49:51.060Z,3.10
2019-04-30T18:52:20.631Z,3.10
2019-04-30T18:54:50.109Z,3.20
2019-04-30T18:57:19.637Z,2.50
2019-04-30T18:59:49.102Z,2.90
2019-04-30T19:02:19.403Z,2.93
2019-04-30T19:04:49.606Z,3.73
2019-04-30T19:07:38.966Z,3.63
2019-04-30T19:10:12.743Z,3.17
2019-04-30T19:12:45.095Z,3.00
2019-04-30T19:15:59.250Z,2.90
2019-04-30T19:18:05.178Z,3.20
2019-04-30T19:20:51.388Z,3.17
2019-04-30T19:23:20.818Z,3.83
2019-04-30T19:25:50.464Z,3.40
2019-04-30T19:28:20.038Z,3.10
2019-04-30T19:30:57.960Z,3.57
2019-04-30T19:33:21.802Z,5.60
2019-04-30T19:35:51.275Z,6.70
2019-04-30T19:38:20.785Z,6.20
2019-04-30T19:40:51.454Z,4.87
2019-04-30T19:43:20.889Z,4.43
2019-04-30T19:45:51.571Z,3.80
2019-04-30T19:48:21.094Z,3.90
2019-04-30T19:50:50.558Z,4.40
2019-04-30T19:53:21.962Z,3.87
2019-04-30T19:55:53.237Z,4.30
2019-04-30T19:58:29.521Z,4.50
2019-04-30T20:00:53.708Z,4.30
2019-04-30T20:03:23.176Z,3.73
2019-04-30T20:05:53.957Z,3.47
2019-04-30T20:08:23.322Z,3.40
2019-04-30T20:10:54.023Z,3.43
2019-04-30T20:13:36.281Z,3.07
2019-04-30T20:15:55.739Z,3.30
2019-04-30T20:18:25.212Z,3.50
2019-04-30T20:21:00.879Z,2.70
2019-04-30T20:23:28.644Z,3.53
2019-04-30T20:25:58.264Z,2.70
2019-04-30T20:28:38.431Z,4.50
2019-04-30T20:30:58.785Z,4.60
2019-04-30T20:33:28.998Z,4.40
2019-04-30T20:35:59.847Z,4.80
2019-04-30T20:38:43.087Z,4.03
2019-04-30T20:41:13.800Z,3.37
2019-04-30T20:43:43.266Z,3.20
2019-04-30T20:46:13.979Z,3.60
2019-04-30T20:48:43.460Z,2.83
2019-04-30T20:51:14.249Z,2.73
2019-04-30T20:53:43.720Z,3.20
2019-04-30T20:56:13.220Z,2.90
2019-04-30T20:58:54.911Z,3.00
2019-04-30T21:01:13.813Z,3.00
2019-04-30T21:03:43.484Z,3.13
2019-04-30T21:06:12.985Z,3.90
2019-04-30T21:08:42.394Z,3.50
2019-04-30T21:11:13.403Z,3.20
2019-04-30T21:13:42.900Z,3.20
2019-04-30T21:16:13.742Z,3.07
2019-04-30T21:18:43.208Z,3.07
2019-04-30T21:21:14.487Z,3.27
2019-04-30T21:23:43.991Z,3.30
2019-04-30T21:26:14.792Z,3.10
2019-04-30T21:28:46.164Z,3.83
2019-04-30T21:31:33.323Z,3.50
2019-04-30T21:34:04.503Z,3.40
2019-04-30T21:36:35.518Z,3.63
2019-04-30T21:39:08.830Z,3.60
2019-04-30T21:41:39.543Z,3.50
2019-04-30T21:44:09.272Z,3.43
2019-04-30T21:46:40.146Z,3.40
2019-04-30T21:49:09.659Z,3.63
2019-04-30T21:51:40.169Z,3.60
2019-04-30T21:54:09.682Z,3.47
2019-04-30T21:56:41.404Z,3.40
2019-04-30T21:59:23.566Z,3.70
2019-04-30T22:01:41.965Z,3.60
2019-04-30T22:04:11.640Z,4.03
2019-04-30T22:06:41.127Z,3.70
2019-04-30T22:09:11.224Z,3.87
2019-04-30T22:11:42.426Z,4.33
2019-04-30T22:14:12.084Z,4.30
2019-04-30T22:16:42.694Z,4.23
2019-04-30T22:19:12.202Z,3.80
2019-04-30T22:21:44.836Z,3.63
2019-04-30T22:24:16.254Z,4.00
2019-04-30T22:26:46.734Z,4.20
2019-04-30T22:29:16.556Z,4.17
2019-04-30T22:31:49.444Z,3.90
2019-04-30T22:34:19.579Z,4.10
2019-04-30T22:36:50.357Z,3.93
2019-04-30T22:39:36.535Z,4.00
2019-04-30T22:42:19.378Z,4.67
2019-04-30T22:44:50.369Z,4.10
2019-04-30T22:47:21.309Z,4.23
2019-04-30T22:49:50.876Z,4.20
2019-04-30T22:52:21.927Z,4.10
2019-04-30T22:54:51.483Z,4.10
2019-04-30T22:57:20.982Z,4.20
2019-04-30T22:59:50.527Z,4.40
2019-04-30T23:02:34.343Z,4.13
2019-04-30T23:05:07.177Z,4.30
2019-04-30T23:07:38.066Z,4.53
2019-04-30T23:10:08.024Z,4.37
2019-04-30T23:12:39.078Z,4.17
2019-04-30T23:15:08.642Z,4.10
2019-04-30T23:17:39.518Z,3.93
2019-04-30T23:20:09.828Z,3.90
2019-04-30T23:22:40.699Z,3.83
2019-04-30T23:25:10.138Z,4.43
2019-04-30T23:27:41.001Z,4.73
2019-04-30T23:30:10.588Z,5.00
2019-04-30T23:32:41.273Z,4.97
2019-04-30T23:35:11.019Z,4.57
2019-04-30T23:37:41.699Z,4.47
2019-04-30T23:40:31.378Z,4.40
2019-04-30T23:43:01.826Z,4.40
2019-04-30T23:45:32.557Z,4.00
2019-04-30T23:48:02.084Z,4.80
2019-04-30T23:50:31.586Z,5.80
2019-04-30T23:53:01.064Z,5.07
2019-04-30T23:55:32.232Z,4.73
2019-04-30T23:58:01.708Z,4.10
